< < Back
Terminal Aerodrome Forecast


Current Version              Previous Versions:   1  2  3  4  5  6  7  8  9  

Terminal Aerodrome Forecast

102
FTUS42 KFFC 172300
TAFMCN
TAF
KMCN 172322Z 1800/1824 08007KT P6SM BKN045
     FM180600 05008KT P6SM BKN025
     FM180900 05010KT P6SM VCSH BKN018
     FM181200 05012KT 5SM SHRA OVC014
     FM181700 06014G24KT 4SM SHRA BR OVC010=



Latest METAR

413
SAUS80 KWBC 181000 RRA
MTRMCN
METAR KMCN 180953Z AUTO 03004KT 10SM -RA SCT070 OVC110 12/08 A3026 RMK
AO2 RAB51 SLP244 P0000 T01220083 TSNO


USA.gov is the U.S. government's official web portal to all federal, state and local government web resources and services.